Time;durP1;ratioP1;P1;durP2;ratioP2;P2;SDS_P1;SDS_P2;PMS_P1;PMS_P2;Temp;Humidity;BMP_temperature;BMP_pressure;BME280_temperature;BME280_humidity;BME280_pressure;Samples;Min_cycle;Max_cycle;Signal;HPM_P1;HPM_P2
2024/01/05 00:02:18;;;;;;;2.83;2.00;;;2.00;99.90;;;;;;5112938;28;20020;-74
2024/01/05 00:04:47;;;;;;;8.70;1.88;;;2.00;99.90;;;;;;5090164;28;20379;-74
2024/01/05 00:07:13;;;;;;;3.67;1.83;;;2.00;99.90;;;;;;5121028;28;20086;-74
2024/01/05 00:09:38;;;;;;;2.28;1.90;;;2.00;99.90;;;;;;5115238;28;20100;-75
2024/01/05 00:12:05;;;;;;;9.68;2.15;;;2.10;99.90;;;;;;5120643;27;20020;-75
2024/01/05 00:14:31;;;;;;;4.60;1.85;;;2.20;99.90;;;;;;5120639;27;20031;-74
2024/01/05 00:16:59;;;;;;;4.97;1.50;;;2.10;99.90;;;;;;5114792;28;20437;-74
2024/01/05 00:19:25;;;;;;;4.55;2.05;;;2.20;99.90;;;;;;5108139;28;20032;-74
2024/01/05 00:21:51;;;;;;;3.00;1.40;;;2.10;99.90;;;;;;5111986;28;20465;-73
2024/01/05 00:24:17;;;;;;;3.85;2.13;;;2.20;99.90;;;;;;5091689;28;20051;-74
2024/01/05 00:26:43;;;;;;;5.35;2.75;;;2.20;99.90;;;;;;5109809;28;20514;-74
2024/01/05 00:29:09;;;;;;;5.38;1.92;;;2.10;99.90;;;;;;5107698;28;20034;-74
2024/01/05 00:31:35;;;;;;;6.68;1.70;;;2.20;99.90;;;;;;5092109;28;20024;-73
2024/01/05 00:34:01;;;;;;;6.05;1.80;;;2.20;99.90;;;;;;5090595;28;20556;-74
2024/01/05 00:36:27;;;;;;;12.15;2.28;;;2.10;99.90;;;;;;5121735;28;20062;-75
2024/01/05 00:38:52;;;;;;;4.03;2.20;;;2.10;99.90;;;;;;5102795;28;20027;-74
2024/01/05 00:41:21;;;;;;;5.53;2.55;;;2.10;99.90;;;;;;5096771;28;20034;-75
2024/01/05 00:43:47;;;;;;;8.20;2.90;;;2.00;99.90;;;;;;5099410;28;20043;-75
2024/01/05 00:46:14;;;;;;;5.40;1.67;;;2.00;99.90;;;;;;5121597;28;20331;-76
2024/01/05 00:48:40;;;;;;;3.13;1.92;;;2.00;99.90;;;;;;5119180;28;20034;-75
2024/01/05 00:51:07;;;;;;;9.10;2.13;;;2.10;99.90;;;;;;5119365;28;20086;-75
2024/01/05 00:53:33;;;;;;;9.90;2.00;;;2.00;99.90;;;;;;5103377;28;20354;-74
2024/01/05 00:56:03;;;;;;;5.50;2.17;;;1.90;99.90;;;;;;5120569;28;20016;-75
2024/01/05 00:58:29;;;;;;;3.58;2.05;;;1.90;99.90;;;;;;5112848;28;20102;-75
2024/01/05 01:00:55;;;;;;;3.92;2.47;;;1.90;99.90;;;;;;5119560;28;20015;-76
2024/01/05 01:03:21;;;;;;;7.10;2.25;;;2.00;99.90;;;;;;5094565;28;20061;-75
2024/01/05 01:05:52;;;;;;;3.75;2.03;;;1.80;99.90;;;;;;5121289;28;20047;-75
2024/01/05 01:08:18;;;;;;;5.60;1.92;;;2.00;99.90;;;;;;5117570;28;20240;-74
2024/01/05 01:10:44;;;;;;;4.00;1.98;;;2.10;99.90;;;;;;5121385;28;20053;-75
2024/01/05 01:13:10;;;;;;;5.22;2.10;;;2.10;99.90;;;;;;5116823;28;20289;-75
2024/01/05 01:15:36;;;;;;;4.15;2.28;;;2.10;99.90;;;;;;5104691;28;20094;-75
2024/01/05 01:18:02;;;;;;;3.50;1.80;;;2.10;99.90;;;;;;5091284;28;20043;-75
2024/01/05 01:20:27;;;;;;;4.03;2.35;;;2.00;99.90;;;;;;5091058;28;20028;-75
2024/01/05 01:22:53;;;;;;;5.93;1.98;;;2.00;99.90;;;;;;5107402;28;20540;-75
2024/01/05 01:25:19;;;;;;;3.80;2.30;;;2.00;99.90;;;;;;5109899;28;20032;-74
2024/01/05 01:27:45;;;;;;;12.73;3.55;;;2.50;99.90;;;;;;5108965;28;20105;-75
2024/01/05 01:30:11;;;;;;;9.15;2.60;;;2.10;99.90;;;;;;5107379;28;20024;-74
2024/01/05 01:32:37;;;;;;;6.70;1.63;;;2.20;99.90;;;;;;5077290;28;20554;-75
2024/01/05 01:35:37;;;;;;;9.13;3.97;;;2.20;99.90;;;;;;5113154;28;20046;-76
2024/01/05 01:38:31;;;;;;;7.47;2.40;;;2.10;99.90;;;;;;5080664;28;20567;-76
2024/01/05 01:40:57;;;;;;;4.38;2.25;;;2.10;99.90;;;;;;5092287;28;20043;-78
2024/01/05 01:43:25;;;;;;;4.03;2.03;;;2.20;99.90;;;;;;5113406;28;20028;-75
2024/01/05 01:46:00;;;;;;;6.80;2.28;;;2.20;99.90;;;;;;5113658;28;20036;-74
2024/01/05 01:48:29;;;;;;;8.55;2.10;;;2.20;99.90;;;;;;5078256;28;20016;-75
2024/01/05 01:50:59;;;;;;;3.08;1.70;;;2.20;99.90;;;;;;5093019;28;20024;-74
2024/01/05 01:53:27;;;;;;;6.15;2.08;;;2.20;99.90;;;;;;5108625;28;20031;-76
2024/01/05 01:55:54;;;;;;;6.10;2.13;;;2.20;99.90;;;;;;5094351;28;20024;-75
2024/01/05 01:58:21;;;;;;;4.75;1.52;;;2.20;99.90;;;;;;5094562;28;20031;-74
2024/01/05 02:00:47;;;;;;;7.53;1.92;;;2.20;99.90;;;;;;5112961;28;20054;-75
2024/01/05 02:03:17;;;;;;;7.07;1.90;;;2.30;99.90;;;;;;5113241;28;20499;-75
2024/01/05 02:05:44;;;;;;;2.95;1.70;;;2.30;99.90;;;;;;5112859;28;20027;-75
2024/01/05 02:08:11;;;;;;;3.33;2.00;;;2.30;99.90;;;;;;5111009;28;20076;-74
2024/01/05 02:10:41;;;;;;;5.15;2.15;;;2.20;99.90;;;;;;5112631;28;20099;-76
2024/01/05 02:13:07;;;;;;;4.03;1.83;;;2.20;99.90;;;;;;5094371;28;20019;-75
2024/01/05 02:15:41;;;;;;;3.67;1.80;;;2.30;99.90;;;;;;5092232;28;20055;-76
2024/01/05 02:18:12;;;;;;;3.03;1.55;;;2.30;99.90;;;;;;5112688;28;20185;-74
2024/01/05 02:20:38;;;;;;;4.43;1.50;;;2.20;99.90;;;;;;5112679;28;20034;-74
2024/01/05 02:23:08;;;;;;;7.53;2.60;;;2.30;99.90;;;;;;5093322;28;20387;-75
2024/01/05 02:25:33;;;;;;;3.65;2.10;;;2.30;99.90;;;;;;5091738;28;20026;-74
2024/01/05 02:27:59;;;;;;;1.95;1.80;;;2.30;99.90;;;;;;5111609;28;20007;-75
2024/01/05 02:30:31;;;;;;;8.68;1.55;;;2.20;99.90;;;;;;5111934;28;20533;-77
2024/01/05 02:32:57;;;;;;;2.05;1.55;;;2.20;99.90;;;;;;5109774;28;20047;-76
2024/01/05 02:35:23;;;;;;;3.05;1.98;;;2.10;99.90;;;;;;5112741;28;20085;-74
2024/01/05 02:37:49;;;;;;;4.75;2.33;;;2.20;99.90;;;;;;5094252;28;20122;-73
2024/01/05 02:40:14;;;;;;;4.45;2.40;;;2.20;99.90;;;;;;5112033;28;20015;-74
2024/01/05 02:42:40;;;;;;;7.97;2.08;;;2.20;99.90;;;;;;5108783;28;20028;-74
2024/01/05 02:45:06;;;;;;;5.45;1.92;;;2.40;99.90;;;;;;5102947;28;20380;-75
2024/01/05 02:47:32;;;;;;;4.53;2.78;;;2.20;99.90;;;;;;5091938;28;20454;-73
2024/01/05 02:49:58;;;;;;;2.95;1.70;;;2.10;99.90;;;;;;5082971;28;20504;-75
2024/01/05 02:52:24;;;;;;;2.45;1.77;;;2.10;99.90;;;;;;5091924;28;20051;-74
2024/01/05 02:54:50;;;;;;;9.77;2.10;;;2.10;99.90;;;;;;5111453;28;20022;-73
2024/01/05 02:57:15;;;;;;;7.15;1.80;;;2.20;99.90;;;;;;5110527;28;20510;-74
2024/01/05 02:59:41;;;;;;;8.15;1.98;;;2.00;99.90;;;;;;5111994;28;20030;-75
2024/01/05 03:02:07;;;;;;;5.35;2.05;;;2.00;99.90;;;;;;5109701;28;20073;-74
2024/01/05 03:04:33;;;;;;;2.72;2.50;;;2.00;99.90;;;;;;5112018;28;20020;-74
2024/01/05 03:06:58;;;;;;;4.15;1.90;;;2.00;99.90;;;;;;5109375;28;20031;-74
2024/01/05 03:09:24;;;;;;;3.65;1.85;;;1.90;99.90;;;;;;5111687;28;20043;-73
2024/01/05 03:11:53;;;;;;;4.80;1.83;;;2.00;99.90;;;;;;5110312;28;20028;-73
2024/01/05 03:14:18;;;;;;;3.67;3.00;;;2.00;99.90;;;;;;5111565;28;20062;-75
2024/01/05 03:16:44;;;;;;;3.05;2.15;;;2.00;99.90;;;;;;5109446;28;20788;-74
2024/01/05 03:19:10;;;;;;;4.63;1.67;;;2.20;99.90;;;;;;5111327;28;20039;-75
2024/01/05 03:21:36;;;;;;;3.53;1.83;;;2.20;99.90;;;;;;5108863;28;20035;-74
2024/01/05 03:24:02;;;;;;;3.95;1.75;;;2.10;99.90;;;;;;5109534;28;20019;-75
2024/01/05 03:26:28;;;;;;;5.28;2.17;;;2.10;99.90;;;;;;5110311;28;20030;-75
2024/01/05 03:28:54;;;;;;;4.95;2.22;;;2.10;99.90;;;;;;5110819;28;20067;-74
2024/01/05 03:31:20;;;;;;;2.83;2.42;;;2.10;99.90;;;;;;5111189;28;20044;-73
2024/01/05 03:33:46;;;;;;;7.35;2.42;;;2.00;99.90;;;;;;5107991;28;20032;-74
2024/01/05 03:36:15;;;;;;;2.58;1.75;;;2.10;99.90;;;;;;5111167;28;20034;-75
2024/01/05 03:38:41;;;;;;;4.10;2.10;;;1.90;99.90;;;;;;5111152;28;20080;-76
2024/01/05 03:41:07;;;;;;;4.10;2.55;;;1.90;99.90;;;;;;5109055;28;20020;-75
2024/01/05 03:43:33;;;;;;;5.95;2.35;;;2.10;99.90;;;;;;5110042;28;20024;-75
2024/01/05 03:45:59;;;;;;;1.90;1.42;;;2.10;99.90;;;;;;5111007;28;20032;-75
2024/01/05 03:48:24;;;;;;;4.10;2.10;;;2.30;99.90;;;;;;5092756;28;20081;-74
2024/01/05 03:50:50;;;;;;;2.30;1.77;;;2.20;99.90;;;;;;5108636;28;20069;-75
2024/01/05 03:53:16;;;;;;;6.93;2.08;;;2.20;99.90;;;;;;5110666;28;20574;-74
2024/01/05 03:55:42;;;;;;;3.50;1.60;;;2.10;99.90;;;;;;5110051;28;20023;-74
2024/01/05 03:58:14;;;;;;;5.10;2.78;;;2.10;99.90;;;;;;5110324;28;20027;-74
2024/01/05 04:00:43;;;;;;;3.78;2.50;;;2.10;99.90;;;;;;5089783;28;20102;-74
2024/01/05 04:03:12;;;;;;;4.63;2.50;;;2.00;99.90;;;;;;5110762;28;20019;-74
2024/01/05 04:05:38;;;;;;;15.75;3.58;;;2.00;99.90;;;;;;5110808;28;20027;-75
2024/01/05 04:08:07;;;;;;;4.78;2.00;;;1.90;99.90;;;;;;5091509;28;20212;-77
2024/01/05 04:10:43;;;;;;;7.07;3.67;;;2.00;99.90;;;;;;5093904;28;20027;-74
2024/01/05 04:13:09;;;;;;;8.80;1.98;;;2.00;99.90;;;;;;5111231;28;20154;-75
2024/01/05 04:15:38;;;;;;;2.00;1.85;;;2.10;99.90;;;;;;5117259;28;20428;-76
2024/01/05 04:18:04;;;;;;;;;;;2.20;99.90;;;;;;5100942;28;20053;-74
2024/01/05 04:20:39;;;;;;;9.48;2.60;;;2.20;99.90;;;;;;5106989;28;19907;-77
2024/01/05 04:23:05;;;;;;;4.90;3.03;;;2.10;99.90;;;;;;5112093;28;20031;-74
2024/01/05 04:25:31;;;;;;;3.95;1.85;;;2.20;99.90;;;;;;5111148;28;20031;-75
2024/01/05 04:27:57;;;;;;;6.38;2.15;;;2.20;99.90;;;;;;5109328;28;20630;-76
2024/01/05 04:30:24;;;;;;;2.65;2.13;;;2.20;99.90;;;;;;5121482;28;20031;-78
2024/01/05 04:32:50;;;;;;;7.22;2.00;;;2.20;99.90;;;;;;5097744;28;20011;-76
2024/01/05 04:35:16;;;;;;;2.20;2.00;;;2.10;99.90;;;;;;5097634;28;20032;-76
2024/01/05 04:37:48;;;;;;;3.20;1.58;;;2.20;99.90;;;;;;5096354;28;20027;-76
2024/01/05 04:40:29;;;;;;;9.93;2.03;;;2.20;99.90;;;;;;5092159;28;20020;-77
2024/01/05 04:42:59;;;;;;;2.58;2.38;;;2.10;99.90;;;;;;5107111;28;20042;-76
2024/01/05 04:45:25;;;;;;;5.28;2.20;;;2.20;99.90;;;;;;5092884;28;20027;-77
2024/01/05 04:47:50;;;;;;;3.67;2.20;;;2.10;99.90;;;;;;5094613;28;20028;-74
2024/01/05 04:50:17;;;;;;;3.72;2.28;;;2.20;99.90;;;;;;5107136;28;20055;-75
2024/01/05 04:52:42;;;;;;;3.10;1.90;;;2.10;99.90;;;;;;5091705;28;20020;-76
2024/01/05 04:55:09;;;;;;;5.00;1.85;;;2.10;99.90;;;;;;5110021;28;20027;-74
2024/01/05 04:57:35;;;;;;;8.50;2.47;;;2.10;99.90;;;;;;5109214;28;20078;-76
2024/01/05 05:00:01;;;;;;;5.53;2.22;;;2.00;99.90;;;;;;5089654;28;20529;-74
2024/01/05 05:02:27;;;;;;;7.45;1.80;;;2.00;99.90;;;;;;5110331;28;20444;-77
2024/01/05 05:04:53;;;;;;;6.57;2.25;;;2.00;99.90;;;;;;5106951;28;20063;-74
2024/01/05 05:07:19;;;;;;;6.82;1.83;;;2.00;99.90;;;;;;5110036;28;20046;-76
2024/01/05 05:09:54;;;;;;;6.03;3.25;;;2.00;99.90;;;;;;5101511;28;20480;-77
2024/01/05 05:12:20;;;;;;;3.53;1.48;;;2.10;99.90;;;;;;5104065;28;20536;-76
2024/01/05 05:14:46;;;;;;;2.03;1.75;;;2.10;99.90;;;;;;5086582;28;20020;-76
2024/01/05 05:17:12;;;;;;;3.22;1.85;;;2.20;99.90;;;;;;5113822;28;20088;-76
2024/01/05 05:19:38;;;;;;;2.58;1.50;;;2.20;99.90;;;;;;5094432;28;20121;-77
2024/01/05 05:22:09;;;;;;;6.35;1.52;;;2.10;99.90;;;;;;5113882;28;20399;-76
2024/01/05 05:24:35;;;;;;;4.07;2.30;;;2.10;99.90;;;;;;5111452;28;20423;-76
2024/01/05 05:27:01;;;;;;;3.83;1.98;;;2.20;99.90;;;;;;5112893;28;20031;-75
2024/01/05 05:29:27;;;;;;;7.18;1.63;;;2.20;99.90;;;;;;5114315;28;20042;-76
2024/01/05 05:31:53;;;;;;;3.85;2.40;;;2.20;99.90;;;;;;5094876;28;20035;-76
2024/01/05 05:34:19;;;;;;;2.95;1.65;;;2.30;99.90;;;;;;5114809;28;20024;-75
2024/01/05 05:36:45;;;;;;;7.68;2.20;;;2.50;99.90;;;;;;5115774;28;20350;-76
2024/01/05 05:39:21;;;;;;;5.97;2.08;;;2.40;99.90;;;;;;5118925;28;20031;-77
2024/01/05 05:41:47;;;;;;;8.75;2.20;;;2.50;99.90;;;;;;5122856;28;20031;-74
2024/01/05 05:44:13;;;;;;;3.55;2.53;;;2.40;99.90;;;;;;5118201;28;20096;-77
2024/01/05 05:46:39;;;;;;;4.97;2.15;;;2.50;99.90;;;;;;5113191;28;20016;-76
2024/01/05 05:49:07;;;;;;;5.07;2.28;;;2.50;99.90;;;;;;5095385;28;20080;-75
2024/01/05 05:51:36;;;;;;;1.25;1.15;;;2.50;99.90;;;;;;5111990;28;20084;-75
2024/01/05 05:54:07;;;;;;;4.80;2.00;;;2.40;99.90;;;;;;5113923;28;20540;-76
2024/01/05 05:56:33;;;;;;;2.58;1.85;;;2.50;99.90;;;;;;5110750;28;20063;-76
2024/01/05 05:58:59;;;;;;;4.28;1.70;;;2.50;99.90;;;;;;5095616;28;20032;-76
2024/01/05 06:01:25;;;;;;;5.03;1.50;;;2.50;99.90;;;;;;5093278;28;20841;-76
2024/01/05 06:03:51;;;;;;;8.30;1.92;;;2.40;99.90;;;;;;5113331;28;20024;-74
2024/01/05 06:06:21;;;;;;;3.55;2.05;;;2.50;99.90;;;;;;5093252;28;20616;-75
2024/01/05 06:08:48;;;;;;;7.50;1.63;;;2.60;99.90;;;;;;5112163;28;20173;-76
2024/01/05 06:11:21;;;;;;;6.03;1.42;;;2.60;99.90;;;;;;5112264;28;20027;-75
2024/01/05 06:13:49;;;;;;;2.78;1.58;;;2.60;99.90;;;;;;5092554;28;20023;-75
2024/01/05 06:16:15;;;;;;;6.88;1.75;;;2.70;99.90;;;;;;5113134;28;20050;-76
2024/01/05 06:18:42;;;;;;;4.30;1.55;;;2.70;99.90;;;;;;5100570;28;20051;-75
2024/01/05 06:21:07;;;;;;;7.22;1.90;;;2.70;99.90;;;;;;5092100;28;20043;-75
2024/01/05 06:23:33;;;;;;;3.17;1.52;;;2.70;99.90;;;;;;5090093;28;20028;-76
2024/01/05 06:25:59;;;;;;;2.75;1.50;;;2.70;99.90;;;;;;5091998;28;20036;-76
2024/01/05 06:28:25;;;;;;;1.88;1.75;;;2.70;99.90;;;;;;5089829;28;20051;-77
2024/01/05 06:30:51;;;;;;;3.92;1.60;;;2.90;99.90;;;;;;5092558;28;20089;-75
2024/01/05 06:33:16;;;;;;;5.70;1.48;;;2.80;99.90;;;;;;5072212;28;20020;-77
2024/01/05 06:35:42;;;;;;;2.58;1.80;;;2.80;99.90;;;;;;5092551;28;20024;-76
2024/01/05 06:38:11;;;;;;;3.08;1.20;;;2.90;99.90;;;;;;5090985;28;20036;-75
2024/01/05 06:40:40;;;;;;;3.00;1.70;;;2.90;99.90;;;;;;5073652;28;20028;-75
2024/01/05 06:43:05;;;;;;;2.70;1.57;;;2.90;99.90;;;;;;5091172;28;20020;-75
2024/01/05 06:45:34;;;;;;;5.95;2.58;;;2.90;99.90;;;;;;5090933;28;20020;-76
2024/01/05 06:48:00;;;;;;;6.82;1.85;;;2.80;99.90;;;;;;5091987;28;20566;-76
2024/01/05 06:50:27;;;;;;;3.72;2.22;;;2.80;99.90;;;;;;5090324;28;20573;-77
2024/01/05 06:52:53;;;;;;;3.88;2.13;;;2.80;99.90;;;;;;5092010;28;20788;-76
2024/01/05 06:55:19;;;;;;;4.50;2.45;;;2.90;99.90;;;;;;5093238;28;20013;-76
2024/01/05 06:57:46;;;;;;;5.93;3.25;;;2.80;99.90;;;;;;5089842;28;20486;-76
2024/01/05 07:00:12;;;;;;;4.80;2.40;;;2.90;99.90;;;;;;5091240;28;20054;-74
2024/01/05 07:02:38;;;;;;;9.48;4.97;;;2.80;99.90;;;;;;5091877;28;20074;-76
2024/01/05 07:05:04;;;;;;;5.70;3.97;;;2.90;99.90;;;;;;5099204;28;20020;-77
2024/01/05 07:07:30;;;;;;;3.28;2.53;;;2.90;99.90;;;;;;5097455;28;20069;-77
2024/01/05 07:09:56;;;;;;;5.30;2.47;;;2.90;99.90;;;;;;5091706;28;20104;-77
2024/01/05 07:12:29;;;;;;;3.20;2.10;;;2.90;99.90;;;;;;5067478;28;20118;-77
2024/01/05 07:14:54;;;;;;;5.15;2.65;;;2.70;99.90;;;;;;5089645;28;20024;-77
2024/01/05 07:17:20;;;;;;;6.32;3.25;;;2.70;99.90;;;;;;5091438;28;20036;-75
2024/01/05 07:19:46;;;;;;;4.22;2.10;;;2.70;99.90;;;;;;5074566;28;20051;-76
2024/01/05 07:22:17;;;;;;;5.35;2.38;;;2.80;99.90;;;;;;5103781;28;20076;-76
2024/01/05 07:24:59;;;;;;;2.53;2.33;;;2.70;99.90;;;;;;5093652;28;20020;-76
2024/01/05 07:27:25;;;;;;;2.47;1.83;;;2.70;99.90;;;;;;5074655;28;20024;-76
2024/01/05 07:29:55;;;;;;;4.22;2.63;;;2.60;99.90;;;;;;5090106;28;20024;-76
2024/01/05 07:32:21;;;;;;;3.08;1.70;;;2.80;99.90;;;;;;5096263;28;20020;-77
2024/01/05 07:34:50;;;;;;;6.00;4.10;;;2.90;99.90;;;;;;5089496;28;20538;-76
2024/01/05 07:37:17;;;;;;;26.25;19.80;;;3.00;99.90;;;;;;5103008;28;20054;-76
2024/01/05 07:39:43;;;;;;;19.63;9.27;;;3.10;99.90;;;;;;5111713;28;20077;-76
2024/01/05 07:42:11;;;;;;;3.20;2.10;;;3.20;99.90;;;;;;5064734;28;20020;-77
2024/01/05 07:44:37;;;;;;;10.38;5.07;;;3.10;99.90;;;;;;5090830;28;20095;-74
2024/01/05 07:47:04;;;;;;;11.68;6.13;;;3.20;99.90;;;;;;5081543;28;20111;-76
2024/01/05 07:49:30;;;;;;;17.10;7.50;;;3.20;99.90;;;;;;5088844;28;20426;-75
2024/01/05 07:51:55;;;;;;;12.18;5.38;;;3.30;99.90;;;;;;5089507;28;20019;-77
2024/01/05 07:54:21;;;;;;;5.45;3.08;;;3.30;99.90;;;;;;5090611;28;20065;-76
2024/01/05 07:56:49;;;;;;;7.78;5.40;;;4.80;99.90;;;;;;5069817;28;20123;-76
2024/01/05 07:59:15;;;;;;;5.32;3.60;;;3.40;99.90;;;;;;5090702;28;20032;-77
2024/01/05 08:01:41;;;;;;;9.63;4.13;;;3.50;99.90;;;;;;5075155;28;20033;-75
2024/01/05 08:04:07;;;;;;;7.28;5.13;;;3.60;99.90;;;;;;5094515;28;20091;-76
2024/01/05 08:06:33;;;;;;;47.60;16.88;;;3.70;99.90;;;;;;5114117;28;20016;-77
2024/01/05 08:08:59;;;;;;;22.45;8.45;;;3.90;99.90;;;;;;5097619;28;20030;-75
2024/01/05 08:11:25;;;;;;;12.15;5.22;;;3.90;99.90;;;;;;5095382;28;20024;-76
2024/01/05 08:13:51;;;;;;;7.78;3.85;;;4.00;99.90;;;;;;5072131;28;20020;-74
2024/01/05 08:16:17;;;;;;;7.43;3.90;;;4.10;99.90;;;;;;5082206;28;20052;-76
2024/01/05 08:18:43;;;;;;;9.68;4.20;;;4.00;99.90;;;;;;5100986;28;20526;-77
2024/01/05 08:21:10;;;;;;;41.55;13.32;;;4.00;99.90;;;;;;5108610;28;20370;-77
2024/01/05 08:23:36;;;;;;;15.90;7.30;;;4.00;99.90;;;;;;5110696;28;20039;-76
2024/01/05 08:26:05;;;;;;;13.20;6.72;;;4.20;99.90;;;;;;5108299;28;20051;-77
2024/01/05 08:28:31;;;;;;;10.27;5.70;;;4.20;99.90;;;;;;5110393;28;20375;-77
2024/01/05 08:30:57;;;;;;;13.18;6.10;;;4.20;99.90;;;;;;5092157;28;20761;-75
2024/01/05 08:33:22;;;;;;;12.88;4.90;;;4.20;99.90;;;;;;5108484;28;20508;-75
2024/01/05 08:35:48;;;;;;;12.52;5.40;;;4.40;99.90;;;;;;5092062;28;20043;-76
2024/01/05 08:38:14;;;;;;;11.85;6.43;;;3.90;99.90;;;;;;5107568;28;20031;-76
2024/01/05 08:40:40;;;;;;;10.70;4.57;;;4.40;99.90;;;;;;5111194;28;20020;-76
2024/01/05 08:43:06;;;;;;;17.13;5.32;;;4.40;99.90;;;;;;5111464;28;20019;-75
2024/01/05 08:45:34;;;;;;;9.68;4.18;;;4.00;99.90;;;;;;5092075;28;20567;-75
2024/01/05 08:48:00;;;;;;;11.63;4.93;;;4.40;99.90;;;;;;5109254;28;20078;-75
2024/01/05 08:50:26;;;;;;;12.63;5.20;;;4.50;99.90;;;;;;5109146;28;20107;-75
2024/01/05 08:52:52;;;;;;;13.15;5.20;;;4.50;99.90;;;;;;5110070;28;20116;-75
2024/01/05 08:55:18;;;;;;;12.55;6.20;;;4.50;99.90;;;;;;5107486;28;20391;-75
2024/01/05 08:57:44;;;;;;;14.73;6.85;;;4.60;99.90;;;;;;5087901;28;20036;-74
2024/01/05 09:00:10;;;;;;;8.45;5.28;;;4.70;99.90;;;;;;5090120;28;20042;-76
2024/01/05 09:02:36;;;;;;;6.55;3.60;;;5.60;99.90;;;;;;5092070;28;20035;-75
2024/01/05 09:05:05;;;;;;;6.18;2.70;;;4.70;99.90;;;;;;5107423;28;20395;-75
2024/01/05 09:07:34;;;;;;;6.37;3.07;;;4.70;99.90;;;;;;5110201;28;20031;-74
2024/01/05 09:10:00;;;;;;;3.17;2.30;;;4.80;99.90;;;;;;5089906;28;20059;-75
2024/01/05 09:12:27;;;;;;;3.53;2.50;;;4.80;99.90;;;;;;5091272;28;20084;-75
2024/01/05 09:14:53;;;;;;;4.38;2.47;;;4.90;99.90;;;;;;5091756;28;20024;-75
2024/01/05 09:17:19;;;;;;;4.97;2.28;;;4.80;99.90;;;;;;5088599;28;20498;-74
2024/01/05 09:19:45;;;;;;;4.28;2.40;;;4.90;99.90;;;;;;5109664;28;20040;-75
2024/01/05 09:22:12;;;;;;;8.18;2.38;;;5.00;99.90;;;;;;5107199;28;20466;-75
2024/01/05 09:24:37;;;;;;;6.25;2.78;;;4.90;99.90;;;;;;5109787;28;20711;-76
2024/01/05 09:27:04;;;;;;;5.00;2.97;;;5.10;99.90;;;;;;5108963;28;20039;-76
2024/01/05 09:29:31;;;;;;;10.43;3.17;;;5.20;99.90;;;;;;5107341;28;20023;-75
2024/01/05 09:31:57;;;;;;;22.30;9.45;;;5.10;99.90;;;;;;5109739;28;20024;-75
2024/01/05 09:34:22;;;;;;;6.70;3.05;;;5.10;99.90;;;;;;5091409;28;20384;-76
2024/01/05 09:36:49;;;;;;;3.70;2.67;;;5.20;99.90;;;;;;5109554;28;20028;-76
2024/01/05 09:39:14;;;;;;;6.28;2.47;;;5.30;99.90;;;;;;5080438;28;20020;-76
2024/01/05 09:41:41;;;;;;;6.22;3.13;;;5.40;99.90;;;;;;5083993;28;20497;-76
2024/01/05 09:44:10;;;;;;;6.57;2.75;;;5.50;99.90;;;;;;5090139;28;20050;-74
2024/01/05 09:46:39;;;;;;;5.25;3.10;;;5.70;99.90;;;;;;5094437;28;20019;-76
2024/01/05 09:49:06;;;;;;;7.30;3.40;;;5.60;99.90;;;;;;5097457;28;20034;-76
2024/01/05 09:51:32;;;;;;;7.40;3.38;;;5.80;99.90;;;;;;5093266;28;20466;-75
2024/01/05 09:53:58;;;;;;;9.98;4.45;;;5.90;99.90;;;;;;5095387;28;20027;-75
2024/01/05 09:56:27;;;;;;;13.73;3.75;;;5.80;99.90;;;;;;5120175;28;20889;-75
2024/01/05 09:58:53;;;;;;;5.88;2.95;;;5.80;99.90;;;;;;5119839;28;20035;-76
2024/01/05 10:01:25;;;;;;;13.90;3.75;;;5.80;99.90;;;;;;5104000;28;20103;-76
2024/01/05 10:03:56;;;;;;;2.70;2.40;;;5.70;99.90;;;;;;5100387;28;20091;-76
2024/01/05 10:06:22;;;;;;;5.25;2.33;;;5.70;99.90;;;;;;5100141;28;20118;-76
2024/01/05 10:09:18;;;;;;;5.53;2.53;;;5.70;99.90;;;;;;5111746;28;20034;-77
2024/01/05 10:11:46;;;;;;;6.93;2.97;;;5.70;99.90;;;;;;5080548;28;20055;-76
2024/01/05 10:14:12;;;;;;;32.85;12.40;;;5.70;99.90;;;;;;5113424;28;20411;-77
2024/01/05 10:16:39;;;;;;;18.00;7.88;;;5.80;99.90;;;;;;5116568;28;20023;-75
2024/01/05 10:19:17;;;;;;;16.48;5.95;;;5.80;99.90;;;;;;5120251;28;20074;-76
2024/01/05 10:21:50;;;;;;;15.50;6.82;;;5.80;99.90;;;;;;5117380;28;20030;-76
2024/01/05 10:24:28;;;;;;;5.55;2.97;;;5.80;99.90;;;;;;5110223;28;20681;-76
2024/01/05 10:27:04;;;;;;;11.15;4.07;;;6.00;99.90;;;;;;5115970;28;20027;-75
2024/01/05 10:29:31;;;;;;;9.00;3.58;;;6.00;99.90;;;;;;5111022;28;20092;-76
2024/01/05 10:32:24;;;;;;;8.50;4.63;;;6.10;99.90;;;;;;5103810;28;20034;-78
2024/01/05 10:34:50;;;;;;;6.20;3.42;;;6.00;99.90;;;;;;5096534;28;20027;-77
2024/01/05 10:37:21;;;;;;;11.00;3.58;;;5.90;99.90;;;;;;5110791;28;20118;-76
2024/01/05 10:39:52;;;;;;;4.10;3.00;;;6.00;99.90;;;;;;5112851;28;20020;-76
2024/01/05 10:42:26;;;;;;;7.25;3.47;;;6.10;99.90;;;;;;5091268;28;20024;-76
2024/01/05 10:44:54;;;;;;;7.05;3.80;;;6.10;99.90;;;;;;5112462;28;20079;-76
2024/01/05 10:47:22;;;;;;;7.80;3.47;;;6.20;99.90;;;;;;5112249;28;20542;-76
2024/01/05 10:49:50;;;;;;;7.15;3.65;;;6.20;99.90;;;;;;5112524;28;20426;-74
2024/01/05 10:52:37;;;;;;;9.00;3.65;;;6.20;99.90;;;;;;5110162;28;20498;-75
2024/01/05 10:55:04;;;;;;;12.23;4.35;;;6.20;99.90;;;;;;5112071;28;20022;-77
2024/01/05 10:57:30;;;;;;;10.10;4.80;;;6.10;99.90;;;;;;5114762;28;20028;-77
2024/01/05 10:59:56;;;;;;;9.93;4.97;;;6.10;99.90;;;;;;5092844;28;20020;-76
2024/01/05 11:02:40;;;;;;;7.20;4.47;;;6.10;99.90;;;;;;5087446;28;21081;-76
2024/01/05 11:05:08;;;;;;;6.85;4.97;;;6.10;99.90;;;;;;5121804;28;20078;-76
2024/01/05 11:07:39;;;;;;;8.35;4.65;;;6.20;99.90;;;;;;5101865;28;20027;-76
2024/01/05 11:10:26;;;;;;;9.05;5.03;;;6.30;99.90;;;;;;5119872;28;20011;-75
2024/01/05 11:13:29;;;;;;;12.40;4.80;;;6.30;99.90;;;;;;5122890;28;20649;-76
2024/01/05 11:16:02;;;;;;;10.57;4.85;;;6.20;99.90;;;;;;5098253;28;20020;-75
2024/01/05 11:18:55;;;;;;;9.55;4.75;;;6.20;99.90;;;;;;5102012;28;20412;-76
2024/01/05 11:21:40;;;;;;;10.85;4.28;;;6.30;99.90;;;;;;5093222;28;20097;-77
2024/01/05 11:24:07;;;;;;;8.50;4.22;;;6.30;99.90;;;;;;5114182;28;20156;-76
2024/01/05 11:26:41;;;;;;;6.85;4.32;;;6.40;99.90;;;;;;5117555;28;20083;-76
2024/01/05 11:29:12;;;;;;;7.93;4.93;;;6.40;99.90;;;;;;5121648;28;20023;-77
2024/01/05 11:31:47;;;;;;;12.93;4.43;;;6.30;99.90;;;;;;5121636;28;20284;-76
2024/01/05 11:34:34;;;;;;;7.20;4.13;;;6.30;99.90;;;;;;5119655;28;20020;-75
2024/01/05 11:37:04;;;;;;;13.27;7.88;;;6.60;99.90;;;;;;5093914;28;20078;-76
2024/01/05 11:39:48;;;;;;;16.08;8.50;;;6.80;99.90;;;;;;5107222;28;20023;-75
2024/01/05 11:42:27;;;;;;;14.20;7.05;;;7.00;99.90;;;;;;5112142;28;20051;-76
2024/01/05 11:44:54;;;;;;;10.02;4.20;;;7.10;99.90;;;;;;5121899;28;20080;-75
2024/01/05 11:47:41;;;;;;;9.45;5.85;;;7.40;99.90;;;;;;5122007;28;20027;-76
2024/01/05 11:50:37;;;;;;;135.75;43.97;;;7.60;99.90;;;;;;5119065;28;20250;-76
2024/01/05 11:53:27;;;;;;;9.65;6.30;;;7.60;99.90;;;;;;5121905;28;20026;-76
2024/01/05 11:55:56;;;;;;;42.15;15.98;;;7.60;99.90;;;;;;5121729;28;20070;-78
2024/01/05 11:58:27;;;;;;;68.93;28.10;;;7.40;99.90;;;;;;5113866;28;20045;-75
2024/01/05 12:00:55;;;;;;;12.90;5.47;;;7.30;99.90;;;;;;5096491;28;20054;-75
2024/01/05 12:03:23;;;;;;;8.57;4.70;;;7.10;99.90;;;;;;5090165;28;20035;-76
2024/01/05 12:05:55;;;;;;;7.85;4.00;;;7.10;99.90;;;;;;5112913;28;20334;-75
2024/01/05 12:08:24;;;;;;;11.20;6.25;;;7.00;99.90;;;;;;5117832;28;20347;-74
2024/01/05 12:10:57;;;;;;;10.23;5.22;;;6.90;99.90;;;;;;5119558;28;20023;-76
2024/01/05 12:13:26;;;;;;;13.98;6.88;;;6.90;99.90;;;;;;5091741;28;20028;-76
2024/01/05 12:15:53;;;;;;;8.32;5.38;;;7.00;99.90;;;;;;5092808;28;20023;-77
2024/01/05 12:18:23;;;;;;;8.68;5.65;;;7.10;99.90;;;;;;5089881;28;20112;-76
2024/01/05 12:20:56;;;;;;;6.57;4.43;;;7.10;99.90;;;;;;5111973;28;20012;-75
2024/01/05 12:23:23;;;;;;;11.68;7.45;;;7.10;99.90;;;;;;5109464;28;20487;-75
2024/01/05 12:26:07;;;;;;;13.20;6.45;;;7.10;99.90;;;;;;5105638;28;20090;-76
2024/01/05 12:28:44;;;;;;;14.20;6.80;;;7.10;99.90;;;;;;5088340;28;20022;-77
2024/01/05 12:31:11;;;;;;;29.58;12.70;;;6.90;99.90;;;;;;5086590;28;20023;-76
2024/01/05 12:33:42;;;;;;;18.85;9.60;;;6.80;99.90;;;;;;5104261;28;20062;-74
2024/01/05 12:36:14;;;;;;;17.92;9.07;;;6.60;99.90;;;;;;5090511;28;20035;-75
2024/01/05 12:38:40;;;;;;;18.02;9.45;;;6.60;99.90;;;;;;5095542;28;20032;-75
2024/01/05 12:41:14;;;;;;;20.30;9.43;;;6.60;99.90;;;;;;5111445;28;20077;-74
2024/01/05 12:43:50;;;;;;;19.58;9.40;;;6.60;99.90;;;;;;5107639;28;20023;-73
2024/01/05 12:46:17;;;;;;;14.20;6.82;;;6.70;99.90;;;;;;5107778;28;20453;-73
2024/01/05 12:48:45;;;;;;;18.40;9.55;;;6.60;99.90;;;;;;5106557;28;20027;-74
2024/01/05 12:51:20;;;;;;;19.67;9.63;;;6.60;99.90;;;;;;5114000;28;20023;-74
2024/01/05 12:53:50;;;;;;;13.98;7.38;;;6.60;99.90;;;;;;5100984;28;20396;-74
2024/01/05 12:56:19;;;;;;;15.70;8.18;;;6.70;99.90;;;;;;5105654;28;20027;-73
2024/01/05 12:58:48;;;;;;;13.15;5.70;;;6.80;99.90;;;;;;5108797;28;20153;-74
2024/01/05 13:01:23;;;;;;;14.05;7.45;;;6.80;99.90;;;;;;5085231;28;20162;-75
2024/01/05 13:03:56;;;;;;;22.85;9.90;;;6.80;99.90;;;;;;5117590;28;20027;-75